Time;durP1;ratioP1;P1;durP2;ratioP2;P2;SDS_P1;SDS_P2;PMS_P1;PMS_P2;Temp;Humidity;BMP_temperature;BMP_pressure;BME280_temperature;BME280_humidity;BME280_pressure;Samples;Min_cycle;Max_cycle;Signal;HPM_P1;HPM_P2
2022/05/19 05:36:43;;;;;;;;;;;;;;;22.90;61.66;97454.38;4242841;27;10356;-64
2022/05/19 05:38:46;;;;;;;;;;;;;;;23.22;61.46;97454.41;4241524;27;5732;-64
2022/05/19 05:40:50;;;;;;;;;;;;;;;23.46;61.19;97460.25;4246900;27;5670;-64
2022/05/19 05:42:53;;;;;;;;;;;;;;;23.67;60.80;97456.63;4249016;27;5661;-64
2022/05/19 05:44:56;;;;;;;;;;;;;;;23.82;60.84;97458.59;4234161;27;5794;-64
2022/05/19 05:47:01;;;;;;;;;;;;;;;23.96;60.59;97461.63;4232097;28;5683;-64
2022/05/19 05:49:05;;;;;;;;;;;;;;;24.10;60.00;97466.28;4234018;27;5816;-64
2022/05/19 05:51:09;;;;;;;;;;;;;;;24.22;59.64;97468.78;4248722;27;5777;-64
2022/05/19 05:53:14;;;;;;;;;;;;;;;24.35;59.45;97468.34;4245455;27;5805;-64
2022/05/19 05:55:17;;;;;;;;;;;;;;;24.46;59.68;97476.44;4248441;27;5788;-64
2022/05/19 05:57:19;;;;;;;;;;;;;;;24.56;59.32;97474.59;4248452;27;6367;-64
2022/05/19 05:59:22;;;;;;;;;;;;;;;24.67;58.60;97475.44;4243456;27;5695;-64
2022/05/19 06:01:26;;;;;;;;;;;;;;;24.77;58.65;97474.66;4231830;28;5686;-64
2022/05/19 06:03:29;;;;;;;;;;;;;;;24.83;58.50;97477.09;4244481;27;5665;-64
2022/05/19 06:05:32;;;;;;;;;;;;;;;24.88;58.18;97474.41;4248611;27;5658;-64
2022/05/19 06:07:35;;;;;;;;;;;;;;;24.93;58.03;97482.53;4245178;27;5654;-64
2022/05/19 06:09:39;;;;;;;;;;;;;;;24.98;57.95;97493.34;4242296;27;6920;-64
2022/05/19 06:11:43;;;;;;;;;;;;;;;25.06;57.56;97488.53;4245606;27;5805;-64
2022/05/19 06:13:47;;;;;;;;;;;;;;;25.13;57.17;97497.16;4239425;27;5654;-64
2022/05/19 06:15:49;;;;;;;;;;;;;;;25.18;57.10;97494.50;4248292;27;5638;-65
2022/05/19 06:17:53;;;;;;;;;;;;;;;25.23;56.71;97498.00;4248277;27;6358;-65
2022/05/19 06:19:56;;;;;;;;;;;;;;;25.27;56.28;97501.00;4248435;27;5592;-65
2022/05/19 06:21:59;;;;;;;;;;;;;;;25.34;56.42;97500.72;4246988;27;5678;-65
2022/05/19 06:24:02;;;;;;;;;;;;;;;25.39;56.21;97503.44;4248434;27;5649;-65
2022/05/19 06:26:07;;;;;;;;;;;;;;;25.43;55.58;97496.38;4246787;27;5877;-65
2022/05/19 06:28:10;;;;;;;;;;;;;;;25.48;55.79;97501.78;4248155;27;5666;-65
2022/05/19 06:30:14;;;;;;;;;;;;;;;25.52;55.64;97492.84;4248572;27;5665;-65
2022/05/19 06:32:17;;;;;;;;;;;;;;;25.57;55.09;97492.03;4246826;27;5642;-65
2022/05/19 06:34:20;;;;;;;;;;;;;;;25.62;55.28;97497.47;4248158;27;5642;-64
2022/05/19 06:36:23;;;;;;;;;;;;;;;25.67;54.86;97496.63;4243847;27;5646;-65
2022/05/19 06:38:26;;;;;;;;;;;;;;;25.72;54.88;97500.19;4236718;27;5674;-65
2022/05/19 06:40:31;;;;;;;;;;;;;;;25.77;54.23;97493.94;4236716;27;5654;-65
2022/05/19 06:42:35;;;;;;;;;;;;;;;25.84;54.19;97499.91;4236561;27;5721;-65
2022/05/19 06:44:40;;;;;;;;;;;;;;;25.88;54.10;97503.66;4236670;28;5800;-65
2022/05/19 06:46:43;;;;;;;;;;;;;;;25.91;53.65;97494.19;4236633;28;5642;-65
2022/05/19 06:48:47;;;;;;;;;;;;;;;25.91;53.76;97500.41;4236762;27;5649;-65
2022/05/19 06:50:50;;;;;;;;;;;;;;;25.92;53.59;97504.72;4236570;27;5663;-65
2022/05/19 06:53:13;;;;;;;;;;;;;;;25.94;53.63;97509.91;4236745;28;6496;-65
2022/05/19 06:55:18;;;;;;;;;;;;;;;25.95;53.36;97497.97;4236434;27;5654;-65
2022/05/19 06:57:22;;;;;;;;;;;;;;;25.95;53.12;97506.91;4236375;27;5773;-65
2022/05/19 06:59:26;;;;;;;;;;;;;;;25.94;53.12;97505.28;4236589;28;5670;-65
2022/05/19 07:01:30;;;;;;;;;;;;;;;25.94;52.85;97502.59;4236353;28;8410;-65
2022/05/19 07:03:33;;;;;;;;;;;;;;;25.93;52.86;97503.63;4236447;28;5653;-65
2022/05/19 07:05:39;;;;;;;;;;;;;;;25.91;53.02;97510.44;4235045;28;5728;-65
2022/05/19 07:07:47;;;;;;;;;;;;;;;25.90;52.79;97508.81;4236291;28;5654;-65
2022/05/19 07:09:51;;;;;;;;;;;;;;;25.87;52.37;97510.16;4236448;28;5661;-65
2022/05/19 07:11:55;;;;;;;;;;;;;;;25.85;52.37;97512.34;4236167;28;5638;-65
2022/05/19 07:14:01;;;;;;;;;;;;;;;25.85;52.40;97511.53;4236136;28;6448;-65
2022/05/19 07:16:05;;;;;;;;;;;;;;;25.86;52.54;97518.56;4236484;28;5642;-65
2022/05/19 07:18:08;;;;;;;;;;;;;;;25.87;52.22;97510.16;4236537;27;5737;-65
2022/05/19 07:22:34;;;;;;;;;;;;;;;25.84;51.86;97516.16;4236331;28;5713;-65
2022/05/19 07:24:37;;;;;;;;;;;;;;;25.82;51.76;97512.88;4235945;27;5757;-65
2022/05/19 07:26:40;;;;;;;;;;;;;;;25.82;51.82;97523.72;4233764;27;5657;-65
2022/05/19 07:28:44;;;;;;;;;;;;;;;25.83;51.95;97519.94;4219081;28;5699;-66
2022/05/19 07:30:47;;;;;;;;;;;;;;;25.83;51.37;97520.75;4219063;28;5667;-66
2022/05/19 07:32:53;;;;;;;;;;;;;;;25.84;51.72;97516.16;4219125;28;5667;-65
2022/05/19 07:34:56;;;;;;;;;;;;;;;25.85;51.33;97517.75;4218850;28;5702;-66
2022/05/19 07:37:00;;;;;;;;;;;;;;;25.86;51.28;97524.81;4219355;28;5738;-66
2022/05/19 07:39:04;;;;;;;;;;;;;;;25.86;51.35;97524.81;4219089;28;5678;-66
2022/05/19 07:41:07;;;;;;;;;;;;;;;25.87;50.99;97526.44;4218753;28;6327;-66
2022/05/19 07:45:31;;;;;;;;;;;;;;;25.87;51.23;97531.84;4219047;28;5699;-66
2022/05/19 07:47:34;;;;;;;;;;;;;;;25.85;50.83;97534.00;4218626;28;5647;-66
2022/05/19 07:49:38;;;;;;;;;;;;;;;25.83;50.74;97534.28;4218480;28;6360;-66
2022/05/19 07:51:44;;;;;;;;;;;;;;;25.81;51.11;97528.31;4218971;28;5696;-65
2022/05/19 07:53:47;;;;;;;;;;;;;;;25.81;50.91;97528.31;4218968;28;5753;-65
2022/05/19 07:55:50;;;;;;;;;;;;;;;25.82;50.96;97523.72;4218234;28;5755;-66
2022/05/19 07:57:53;;;;;;;;;;;;;;;25.79;50.86;97526.97;4218944;28;5738;-65
2022/05/19 07:59:56;;;;;;;;;;;;;;;25.77;50.61;97521.03;4218705;28;5679;-66
2022/05/19 08:02:01;;;;;;;;;;;;;;;25.76;50.36;97520.22;4217276;28;5806;-65
2022/05/19 08:04:05;;;;;;;;;;;;;;;25.75;50.67;97531.31;4216650;28;5663;-65
2022/05/19 08:06:10;;;;;;;;;;;;;;;25.71;50.68;97519.38;4217055;28;5751;-66
2022/05/19 08:08:13;;;;;;;;;;;;;;;25.70;50.60;97520.47;4218457;28;5667;-65
2022/05/19 08:10:23;;;;;;;;;;;;;;;25.69;50.70;97513.41;4218489;28;5704;-65
2022/05/19 08:17:11;;;;;;;;;;;;;;;25.64;50.46;97516.13;4218510;27;5818;-66
2022/05/19 08:19:14;;;;;;;;;;;;;;;25.62;50.74;97526.44;4218134;28;5667;-65
2022/05/19 08:21:19;;;;;;;;;;;;;;;25.57;50.35;97527.22;4216942;28;5686;-66
2022/05/19 08:23:25;;;;;;;;;;;;;;;25.57;50.61;97527.22;4218171;28;5687;-66
2022/05/19 08:25:51;;;;;;;;;;;;;;;25.59;50.52;97532.38;4218359;28;5671;-66
2022/05/19 08:27:55;;;;;;;;;;;;;;;25.58;50.59;97533.44;4227697;28;5701;-66
2022/05/19 08:29:58;;;;;;;;;;;;;;;25.58;50.22;97538.88;4234918;28;7680;-66
2022/05/19 08:32:01;;;;;;;;;;;;;;;25.57;50.32;97524.50;4235091;28;5662;-66
2022/05/19 08:34:04;;;;;;;;;;;;;;;25.56;50.34;97528.31;4234720;28;5800;-66
2022/05/19 08:36:08;;;;;;;;;;;;;;;25.57;50.31;97529.94;4234244;27;5650;-66
2022/05/19 08:38:12;;;;;;;;;;;;;;;25.58;50.32;97522.63;4234912;27;5910;-66
2022/05/19 08:40:18;;;;;;;;;;;;;;;25.53;50.43;97521.56;4234570;28;5666;-65
2022/05/19 08:42:23;;;;;;;;;;;;;;;25.51;50.31;97525.63;4234568;27;5653;-66
2022/05/19 08:44:30;;;;;;;;;;;;;;;25.51;50.53;97523.72;4220590;28;5671;-66
2022/05/19 08:46:39;;;;;;;;;;;;;;;25.52;50.59;97519.94;4217902;28;5659;-66
2022/05/19 08:48:42;;;;;;;;;;;;;;;25.54;50.33;97515.06;4218263;28;5675;-66
2022/05/19 08:50:50;;;;;;;;;;;;;;;25.55;50.63;97519.38;4218047;28;5770;-66
2022/05/19 08:52:53;;;;;;;;;;;;;;;25.55;50.18;97516.66;4217862;28;5671;-66
2022/05/19 08:54:59;;;;;;;;;;;;;;;25.56;50.26;97512.06;4218003;28;5707;-67
2022/05/19 08:57:09;;;;;;;;;;;;;;;25.57;50.21;97510.97;4217508;28;5672;-66
2022/05/19 08:59:29;;;;;;;;;;;;;;;25.57;50.38;97513.69;4217461;28;5659;-66
2022/05/19 09:01:40;;;;;;;;;;;;;;;25.59;50.39;97513.41;4217634;28;5670;-66
2022/05/19 09:03:53;;;;;;;;;;;;;;;25.60;50.44;97512.34;4218048;28;5676;-66
2022/05/19 09:06:12;;;;;;;;;;;;;;;25.60;50.10;97515.88;4217687;28;5663;-65
2022/05/19 09:08:26;;;;;;;;;;;;;;;25.60;50.38;97515.88;4217783;28;5778;-66
2022/05/19 09:10:44;;;;;;;;;;;;;;;25.63;50.16;97509.09;4217758;28;5675;-66
2022/05/19 09:12:55;;;;;;;;;;;;;;;25.63;50.46;97509.09;4216111;28;5671;-66
2022/05/19 09:14:57;;;;;;;;;;;;;;;25.64;50.32;97495.28;4217760;28;5675;-66
2022/05/19 09:17:03;;;;;;;;;;;;;;;25.65;49.91;97498.81;4216448;28;5690;-66
2022/05/19 09:19:11;;;;;;;;;;;;;;;25.67;50.23;97502.03;4217651;28;5667;-66
2022/05/19 09:21:14;;;;;;;;;;;;;;;25.69;50.09;97497.16;4217868;28;5672;-67
2022/05/19 09:23:17;;;;;;;;;;;;;;;25.69;50.08;97505.28;4217717;28;5691;-66
2022/05/19 09:25:22;;;;;;;;;;;;;;;25.70;49.97;97506.94;4217525;28;6329;-66
2022/05/19 09:27:27;;;;;;;;;;;;;;;25.71;49.72;97501.28;4225653;28;5672;-66
2022/05/19 09:29:34;;;;;;;;;;;;;;;25.71;50.06;97506.69;4217509;28;5766;-66
2022/05/19 09:31:41;;;;;;;;;;;;;;;25.74;49.64;97513.44;4217516;28;5675;-65
2022/05/19 09:33:47;;;;;;;;;;;;;;;25.76;49.53;97508.56;4217423;28;5710;-65
2022/05/19 09:35:54;;;;;;;;;;;;;;;25.80;49.63;97513.16;4217252;28;5738;-66
2022/05/19 09:38:13;;;;;;;;;;;;;;;25.82;49.31;97515.56;4217636;28;5675;-66
2022/05/19 09:40:24;;;;;;;;;;;;;;;25.83;49.41;97514.53;4216261;28;5754;-66
2022/05/19 09:42:54;;;;;;;;;;;;;;;25.87;49.36;97504.75;4217019;28;5703;-65
2022/05/19 09:44:59;;;;;;;;;;;;;;;25.89;49.26;97510.69;4217251;28;5683;-65
2022/05/19 09:47:17;;;;;;;;;;;;;;;25.95;49.45;97506.09;4217255;28;5727;-65
2022/05/19 09:49:27;;;;;;;;;;;;;;;25.99;49.29;97504.47;4217012;28;5679;-65
2022/05/19 09:51:32;;;;;;;;;;;;;;;26.03;49.30;97509.03;4217263;28;5747;-65
2022/05/19 09:53:39;;;;;;;;;;;;;;;26.07;49.30;97503.91;4217345;28;5786;-65
2022/05/19 09:55:43;;;;;;;;;;;;;;;26.11;48.93;97497.63;4217190;28;5748;-65
2022/05/19 09:57:57;;;;;;;;;;;;;;;26.13;48.97;97495.47;4216947;28;5695;-65
2022/05/19 10:00:04;;;;;;;;;;;;;;;26.15;49.08;97494.38;4217324;28;5862;-65
2022/05/19 10:02:19;;;;;;;;;;;;;;;26.15;48.94;97491.66;4217155;28;6344;-65
2022/05/19 10:04:32;;;;;;;;;;;;;;;26.16;48.89;97498.69;4215694;28;5785;-65
2022/05/19 10:06:39;;;;;;;;;;;;;;;26.16;49.11;97485.16;4216031;28;5698;-65
2022/05/19 10:08:45;;;;;;;;;;;;;;;26.17;48.80;97492.22;4217148;28;5656;-65
2022/05/19 10:10:55;;;;;;;;;;;;;;;26.17;48.95;97487.63;4217201;28;5675;-65
2022/05/19 10:13:07;;;;;;;;;;;;;;;26.19;48.80;97484.63;4219689;28;5671;-65
2022/05/19 10:15:13;;;;;;;;;;;;;;;26.21;48.64;97493.28;4220356;28;5762;-64
2022/05/19 10:17:26;;;;;;;;;;;;;;;26.23;48.54;97491.09;4220247;28;5675;-64
2022/05/19 10:19:42;;;;;;;;;;;;;;;26.27;48.75;97487.56;4220118;28;5762;-65
2022/05/19 10:22:03;;;;;;;;;;;;;;;26.33;48.34;97485.66;4219969;28;5663;-65
2022/05/19 10:24:23;;;;;;;;;;;;;;;26.39;48.15;97493.53;4219614;28;5671;-65
2022/05/19 10:26:42;;;;;;;;;;;;;;;26.46;48.19;97482.34;4219166;28;5680;-65
2022/05/19 10:31:45;;;;;;;;;;;;;;;26.52;48.10;97477.75;4220136;28;5690;-65
2022/05/19 10:34:11;;;;;;;;;;;;;;;26.54;48.05;97475.56;4218577;28;5822;-64
2022/05/19 10:36:21;;;;;;;;;;;;;;;26.52;47.89;97475.03;4219529;28;5827;-65
2022/05/19 10:38:43;;;;;;;;;;;;;;;26.53;47.87;97477.47;4220025;28;5668;-65
2022/05/19 10:41:01;;;;;;;;;;;;;;;26.55;47.97;97477.16;4219709;28;5747;-65
2022/05/19 10:43:27;;;;;;;;;;;;;;;26.56;47.97;97476.09;4218595;28;5667;-65
2022/05/19 10:45:33;;;;;;;;;;;;;;;26.56;47.74;97471.47;4219815;28;5706;-65
2022/05/19 10:47:41;;;;;;;;;;;;;;;26.54;47.54;97473.66;4219605;28;6479;-65
2022/05/19 10:50:08;;;;;;;;;;;;;;;26.54;47.57;97470.13;4220116;28;5722;-65
2022/05/19 10:52:25;;;;;;;;;;;;;;;26.52;47.27;97473.13;4219556;28;5684;-65
2022/05/19 10:54:46;;;;;;;;;;;;;;;26.52;47.20;97467.69;4219490;28;5780;-65
2022/05/19 10:57:07;;;;;;;;;;;;;;;26.53;47.36;97465.81;4219263;28;5770;-65
2022/05/19 10:59:26;;;;;;;;;;;;;;;26.54;47.30;97467.41;4220006;28;5818;-65
2022/05/19 11:01:42;;;;;;;;;;;;;;;26.55;47.03;97469.84;4219513;28;5675;-65
2022/05/19 11:04:04;;;;;;;;;;;;;;;26.59;47.15;97465.47;4219643;28;5656;-65
2022/05/19 11:06:26;;;;;;;;;;;;;;;26.60;47.01;97461.66;4219479;28;5773;-65
2022/05/19 11:08:42;;;;;;;;;;;;;;;26.63;47.07;97458.41;4219572;28;5761;-65
2022/05/19 11:10:54;;;;;;;;;;;;;;;26.65;47.06;97453.53;4218068;28;5664;-65
2022/05/19 11:13:13;;;;;;;;;;;;;;;26.66;47.01;97457.84;4219194;28;5787;-65
2022/05/19 11:15:25;;;;;;;;;;;;;;;26.67;46.91;97454.03;4219694;28;5695;-65
2022/05/19 11:17:40;;;;;;;;;;;;;;;26.67;46.77;97454.03;4219291;28;5754;-65
2022/05/19 11:19:51;;;;;;;;;;;;;;;26.70;46.69;97456.19;4219435;28;5715;-65
2022/05/19 11:21:59;;;;;;;;;;;;;;;26.72;46.88;97445.06;4219410;28;5740;-65
2022/05/19 11:24:07;;;;;;;;;;;;;;;26.74;46.87;97451.03;4219341;28;6356;-65
2022/05/19 11:26:23;;;;;;;;;;;;;;;26.75;46.69;97451.84;4219356;28;5758;-65
2022/05/19 11:28:34;;;;;;;;;;;;;;;26.77;46.58;97441.53;4235842;27;6437;-65
2022/05/19 11:30:45;;;;;;;;;;;;;;;26.80;46.81;97440.94;4234597;27;5664;-65
2022/05/19 11:32:53;;;;;;;;;;;;;;;26.81;46.46;97440.66;4236098;27;5633;-65
2022/05/19 11:35:06;;;;;;;;;;;;;;;26.82;46.50;97442.28;4235756;28;5831;-65
2022/05/19 11:37:18;;;;;;;;;;;;;;;26.83;46.57;97433.06;4235735;28;5650;-65
2022/05/19 11:39:28;;;;;;;;;;;;;;;26.84;46.66;97433.84;4235856;28;5662;-65
2022/05/19 11:41:36;;;;;;;;;;;;;;;26.86;46.64;97434.41;4231978;27;5694;-65
2022/05/19 11:43:45;;;;;;;;;;;;;;;26.85;46.56;97428.19;4228818;28;5788;-65
2022/05/19 11:45:53;;;;;;;;;;;;;;;26.86;46.55;97423.56;4234721;28;5673;-65
2022/05/19 11:55:20;;;;;;;;;;;;;;;27.02;46.11;97422.38;4227402;28;5815;-65
2022/05/19 11:57:30;;;;;;;;;;;;;;;27.06;46.03;97417.19;4217738;28;5730;-65
2022/05/19 11:59:33;;;;;;;;;;;;;;;27.07;46.13;97422.34;4218544;28;5679;-65
2022/05/19 12:01:44;;;;;;;;;;;;;;;27.07;46.06;97425.06;4218401;28;5664;-65
2022/05/19 12:03:58;;;;;;;;;;;;;;;27.11;45.92;97423.38;4218368;28;5749;-65
2022/05/19 12:06:04;;;;;;;;;;;;;;;27.13;45.75;97421.19;4220423;28;5670;-65
2022/05/19 12:08:15;;;;;;;;;;;;;;;27.16;46.03;97426.03;4219835;28;5719;-65
2022/05/19 12:10:24;;;;;;;;;;;;;;;27.20;45.57;97415.44;4221528;28;5691;-65
2022/05/19 12:12:30;;;;;;;;;;;;;;;27.27;45.81;97429.47;4218167;28;5663;-65
2022/05/19 12:14:40;;;;;;;;;;;;;;;27.31;45.62;97430.56;4230515;28;5780;-65
2022/05/19 12:16:51;;;;;;;;;;;;;;;27.34;45.65;97427.25;4234165;28;5650;-65
2022/05/19 12:19:05;;;;;;;;;;;;;;;27.38;45.59;97424.78;4232545;28;5661;-65
2022/05/19 12:21:32;;;;;;;;;;;;;;;27.41;45.47;97432.34;4218253;28;5679;-66
2022/05/19 12:23:39;;;;;;;;;;;;;;;27.44;45.43;97412.78;4217801;28;5861;-65
2022/05/19 12:25:45;;;;;;;;;;;;;;;27.45;45.37;97423.34;4218206;28;5683;-65
2022/05/19 12:28:01;;;;;;;;;;;;;;;27.48;45.58;97430.09;4226628;28;5826;-66
2022/05/19 12:32:37;;;;;;;;;;;;;;;27.47;45.25;97429.31;4217604;28;5679;-65
2022/05/19 12:34:49;;;;;;;;;;;;;;;27.47;45.40;97420.34;4223686;28;5732;-65
2022/05/19 12:37:06;;;;;;;;;;;;;;;27.45;45.28;97425.25;4226056;28;5730;-65
2022/05/19 12:39:29;;;;;;;;;;;;;;;27.46;45.16;97429.59;4222610;28;5669;-65
2022/05/19 12:41:55;;;;;;;;;;;;;;;27.47;45.38;97417.63;4221537;28;5997;-64
2022/05/19 12:43:58;;;;;;;;;;;;;;;27.50;45.13;97419.75;4225261;28;5654;-65
2022/05/19 12:46:02;;;;;;;;;;;;;;;27.51;45.50;97413.22;4219372;28;5737;-65
2022/05/19 12:48:21;;;;;;;;;;;;;;;27.54;45.16;97407.25;4223174;27;5663;-65
2022/05/19 12:50:43;;;;;;;;;;;;;;;27.54;44.96;97412.69;4222739;28;5679;-65
2022/05/19 12:53:06;;;;;;;;;;;;;;;27.55;45.06;97412.41;4228810;28;5674;-65
2022/05/19 12:55:42;;;;;;;;;;;;;;;27.54;44.97;97412.69;4222268;28;5660;-65
2022/05/19 12:57:45;;;;;;;;;;;;;;;27.56;44.96;97418.63;4231999;28;5857;-65
2022/05/19 12:59:53;;;;;;;;;;;;;;;27.56;44.95;97424.06;4227338;28;6403;-65
2022/05/19 13:01:59;;;;;;;;;;;;;;;27.58;44.94;97423.78;4220783;28;5738;-66
2022/05/19 13:04:11;;;;;;;;;;;;;;;27.58;44.69;97427.28;4216212;28;5675;-65
2022/05/19 13:06:15;;;;;;;;;;;;;;;27.59;44.82;97426.19;4219518;27;5654;-65
2022/05/19 13:08:31;;;;;;;;;;;;;;;27.59;44.89;97426.19;4221920;28;5817;-65
2022/05/19 13:10:38;;;;;;;;;;;;;;;27.58;44.85;97437.34;4217392;28;5671;-65
2022/05/19 13:12:56;;;;;;;;;;;;;;;27.57;44.72;97436.53;4225150;28;5753;-65
2022/05/19 13:15:03;;;;;;;;;;;;;;;27.54;44.71;97428.97;4222295;28;5725;-65
2022/05/19 13:17:13;;;;;;;;;;;;;;;27.51;44.60;97440.38;4225179;28;5755;-65
2022/05/19 13:19:19;;;;;;;;;;;;;;;27.52;44.83;97436.56;4226383;28;5132;-65
2022/05/19 13:21:26;;;;;;;;;;;;;;;27.53;44.57;97438.22;4223535;28;5670;-66
2022/05/19 13:23:31;;;;;;;;;;;;;;;27.52;44.54;97445.56;4220366;28;5671;-65
2022/05/19 13:25:44;;;;;;;;;;;;;;;27.52;44.40;97442.00;4216801;28;5795;-66
2022/05/19 13:30:25;;;;;;;;;;;;;;;27.47;44.59;97451.03;4232631;28;5733;-65
2022/05/19 13:32:33;;;;;;;;;;;;;;;27.47;44.78;97448.31;4232858;27;5752;-65
2022/05/19 13:34:43;;;;;;;;;;;;;;;27.47;44.48;97450.22;4233969;28;5784;-66
2022/05/19 13:36:55;;;;;;;;;;;;;;;27.48;44.33;97446.41;4233081;28;5800;-66
2022/05/19 13:39:10;;;;;;;;;;;;;;;27.49;44.32;97448.81;4217324;28;5688;-66
2022/05/19 13:41:14;;;;;;;;;;;;;;;27.49;44.30;97461.59;4226755;28;6385;-66
2022/05/19 13:43:24;;;;;;;;;;;;;;;27.50;44.22;97457.78;4231215;28;5812;-66
2022/05/19 13:45:33;;;;;;;;;;;;;;;27.48;44.30;97468.94;4216884;28;5869;-65
2022/05/19 13:47:36;;;;;;;;;;;;;;;27.47;44.34;97471.94;4219141;28;5679;-66
2022/05/19 13:49:39;;;;;;;;;;;;;;;27.45;44.22;97469.50;4231263;28;5726;-66
2022/05/19 13:51:45;;;;;;;;;;;;;;;27.45;44.30;97476.84;4236209;27;6339;-66
2022/05/19 13:53:55;;;;;;;;;;;;;;;27.44;44.21;97464.38;4236397;27;5646;-66
2022/05/19 13:56:00;;;;;;;;;;;;;;;27.45;44.13;97465.97;4230316;28;5685;-66
2022/05/19 13:58:04;;;;;;;;;;;;;;;27.47;44.20;97467.31;4223288;28;5798;-65
2022/05/19 14:00:12;;;;;;;;;;;;;;;27.52;44.02;97464.56;4219612;28;5785;-65
2022/05/19 14:02:22;;;;;;;;;;;;;;;27.56;44.14;97471.03;4219670;28;5840;-65
2022/05/19 14:04:25;;;;;;;;;;;;;;;27.59;44.21;97468.84;4219852;28;5863;-65
2022/05/19 14:06:31;;;;;;;;;;;;;;;27.57;44.16;97466.41;4235730;28;5713;-65
2022/05/19 14:08:34;;;;;;;;;;;;;;;27.56;44.72;97471.03;4219729;28;5671;-65
2022/05/19 14:10:43;;;;;;;;;;;;;;;27.56;44.50;97467.50;4219664;28;5810;-65
2022/05/19 14:12:48;;;;;;;;;;;;;;;27.56;44.78;97459.38;4225622;28;5762;-65
2022/05/19 14:14:54;;;;;;;;;;;;;;;27.54;44.68;97456.94;4223644;28;5740;-65
2022/05/19 14:16:57;;;;;;;;;;;;;;;27.53;44.73;97455.31;4219629;28;5762;-65
2022/05/19 14:19:07;;;;;;;;;;;;;;;27.52;44.75;97453.72;4219293;28;5683;-66
2022/05/19 14:21:15;;;;;;;;;;;;;;;27.53;44.92;97454.50;4230324;28;5809;-66
2022/05/19 14:23:22;;;;;;;;;;;;;;;27.53;44.89;97454.50;4234998;27;5698;-66
2022/05/19 14:25:29;;;;;;;;;;;;;;;27.53;45.01;97452.59;4235235;28;5794;-66
2022/05/19 14:27:34;;;;;;;;;;;;;;;27.52;45.12;97450.16;4225323;28;5766;-65
2022/05/19 14:29:43;;;;;;;;;;;;;;;27.51;45.04;97452.06;4219999;28;5680;-65
2022/05/19 14:31:56;;;;;;;;;;;;;;;27.50;45.03;97450.44;4219189;28;5771;-66
2022/05/19 14:34:09;;;;;;;;;;;;;;;27.49;45.19;97451.53;4234391;28;5658;-65
2022/05/19 14:36:20;;;;;;;;;;;;;;;27.48;45.10;97454.53;4231162;28;5711;-65
2022/05/19 14:38:26;;;;;;;;;;;;;;;27.44;45.20;97448.06;4219317;28;5698;-65
2022/05/19 14:43:05;;;;;;;;;;;;;;;27.42;45.22;97442.94;4234748;28;5845;-65
2022/05/19 14:45:14;;;;;;;;;;;;;;;27.43;45.16;97438.31;4225606;28;5963;-65
2022/05/19 14:47:21;;;;;;;;;;;;;;;27.42;45.14;97442.94;4222783;28;5796;-66
2022/05/19 14:49:31;;;;;;;;;;;;;;;27.43;45.20;97447.28;4224546;28;7695;-65
2022/05/19 14:51:37;;;;;;;;;;;;;;;27.43;45.16;97449.97;4226731;28;5200;-65
2022/05/19 14:53:45;;;;;;;;;;;;;;;27.43;45.07;97449.19;4221792;28;5771;-65
2022/05/19 14:55:56;;;;;;;;;;;;;;;27.44;44.87;97439.94;4229679;28;5879;-65
2022/05/19 14:58:02;;;;;;;;;;;;;;;27.44;44.78;97439.94;4229039;28;5803;-65
2022/05/19 15:00:06;;;;;;;;;;;;;;;27.44;44.82;97446.16;4221871;28;5623;-65
2022/05/19 15:02:10;;;;;;;;;;;;;;;27.45;44.64;97438.84;4222028;27;5860;-65
2022/05/19 15:04:12;;;;;;;;;;;;;;;27.47;44.75;97439.34;4226529;28;5786;-65
2022/05/19 15:06:18;;;;;;;;;;;;;;;27.47;44.56;97450.22;4228068;28;5776;-65
2022/05/19 15:08:21;;;;;;;;;;;;;;;27.46;44.46;97437.72;4229364;27;5774;-65
2022/05/19 15:10:25;;;;;;;;;;;;;;;27.45;44.31;97430.69;4229524;28;5841;-65
2022/05/19 15:12:28;;;;;;;;;;;;;;;27.42;44.46;97426.66;4228767;28;5749;-65
2022/05/19 15:14:32;;;;;;;;;;;;;;;27.42;44.30;97428.56;4223174;28;5848;-65
2022/05/19 15:16:35;;;;;;;;;;;;;;;27.39;44.18;97427.19;4230332;27;6482;-65
2022/05/19 15:18:39;;;;;;;;;;;;;;;27.37;44.27;97434.81;4232289;28;5829;-65
2022/05/19 15:20:43;;;;;;;;;;;;;;;27.36;43.95;97437.81;4222662;27;5841;-65
2022/05/19 15:22:46;;;;;;;;;;;;;;;27.36;44.32;97443.25;4221408;28;5810;-65
2022/05/19 15:24:55;;;;;;;;;;;;;;;27.35;44.28;97441.63;4225939;28;5800;-65
2022/05/19 15:27:00;;;;;;;;;;;;;;;27.35;44.29;97441.63;4226702;28;5919;-65
2022/05/19 15:29:05;;;;;;;;;;;;;;;27.32;44.21;97437.59;4225180;28;5824;-65
2022/05/19 15:31:11;;;;;;;;;;;;;;;27.29;44.27;97432.72;4225661;28;5753;-65
2022/05/19 15:33:15;;;;;;;;;;;;;;;27.29;44.44;97432.72;4232026;28;5826;-65
2022/05/19 15:35:19;;;;;;;;;;;;;;;27.30;44.29;97436.28;4227739;28;5860;-64
2022/05/19 15:37:22;;;;;;;;;;;;;;;27.30;44.23;97436.28;4231804;27;5753;-64
2022/05/19 15:39:26;;;;;;;;;;;;;;;27.31;44.29;97430.56;4221847;28;5765;-65
2022/05/19 15:41:29;;;;;;;;;;;;;;;27.31;44.25;97425.13;4232201;28;5797;-65
2022/05/19 15:43:32;;;;;;;;;;;;;;;27.32;44.33;97428.66;4219637;28;5790;-65
2022/05/19 15:45:37;;;;;;;;;;;;;;;27.33;44.36;97422.13;4232023;28;5757;-65
2022/05/19 15:47:43;;;;;;;;;;;;;;;27.33;44.36;97431.06;4223846;28;5765;-65
2022/05/19 15:49:47;;;;;;;;;;;;;;;27.35;44.08;97419.91;4230254;27;5769;-65
2022/05/19 15:51:50;;;;;;;;;;;;;;;27.35;44.27;97417.22;4224210;28;5834;-65
2022/05/19 15:53:52;;;;;;;;;;;;;;;27.34;44.35;97410.97;4227321;28;5784;-65
2022/05/19 15:55:57;;;;;;;;;;;;;;;27.35;44.31;97414.50;4230924;28;5749;-65
2022/05/19 15:58:00;;;;;;;;;;;;;;;27.35;44.36;97409.06;4222283;28;5900;-65
2022/05/19 16:00:04;;;;;;;;;;;;;;;27.36;44.28;97416.09;4226900;27;5093;-65
2022/05/19 16:02:18;;;;;;;;;;;;;;;27.36;44.04;97394.38;4229267;27;5752;-65
2022/05/19 16:04:22;;;;;;;;;;;;;;;27.36;44.14;97406.06;4226750;28;6527;-65
2022/05/19 16:06:25;;;;;;;;;;;;;;;27.38;44.11;97394.91;4225941;28;5790;-65
2022/05/19 16:08:29;;;;;;;;;;;;;;;27.38;44.04;97384.84;4232460;28;5745;-65
2022/05/19 16:10:32;;;;;;;;;;;;;;;27.37;43.97;97390.56;4227923;27;5776;-65
2022/05/19 16:12:36;;;;;;;;;;;;;;;27.36;43.95;97394.38;4216582;27;5934;-65
2022/05/19 16:14:39;;;;;;;;;;;;;;;27.34;43.67;97394.69;4221505;28;5862;-65
2022/05/19 16:16:42;;;;;;;;;;;;;;;27.34;43.49;97399.31;4229905;27;5768;-64
2022/05/19 16:18:46;;;;;;;;;;;;;;;27.33;43.51;97401.22;4231410;28;5749;-65
2022/05/19 16:20:51;;;;;;;;;;;;;;;27.35;43.36;97400.91;4230410;27;5859;-65
2022/05/19 16:22:56;;;;;;;;;;;;;;;27.35;43.32;97400.91;4228505;27;5791;-65
2022/05/19 16:25:01;;;;;;;;;;;;;;;27.35;43.21;97400.91;4218017;28;5864;-65
2022/05/19 16:27:05;;;;;;;;;;;;;;;27.34;43.15;97410.97;4218700;28;6591;-65
2022/05/19 16:29:08;;;;;;;;;;;;;;;27.34;42.96;97394.69;4217475;28;5761;-64
2022/05/19 16:31:11;;;;;;;;;;;;;;;27.35;42.95;97403.63;4224934;27;5773;-65
2022/05/19 16:33:14;;;;;;;;;;;;;;;27.33;43.00;97397.69;4227793;28;5777;-64
2022/05/19 16:35:18;;;;;;;;;;;;;;;27.33;43.07;97401.22;4223600;28;5748;-65
2022/05/19 16:37:25;;;;;;;;;;;;;;;27.31;42.96;97405.31;4230506;28;5917;-64
2022/05/19 16:39:28;;;;;;;;;;;;;;;27.30;42.85;97390.94;4231195;28;5870;-66
2022/05/19 16:41:31;;;;;;;;;;;;;;;27.28;43.10;97404.75;4225165;28;5736;-65
2022/05/19 16:43:35;;;;;;;;;;;;;;;27.27;43.17;97411.28;4231080;28;5745;-65
2022/05/19 16:45:38;;;;;;;;;;;;;;;27.26;42.93;97406.97;4228103;28;5758;-65
2022/05/19 16:47:43;;;;;;;;;;;;;;;27.26;42.76;97400.72;4220738;28;6692;-64
2022/05/19 16:49:46;;;;;;;;;;;;;;;27.26;42.83;97404.25;4223943;28;5839;-63
2022/05/19 16:51:49;;;;;;;;;;;;;;;27.26;42.85;97403.44;4229252;28;5740;-64
2022/05/19 16:58:39;;;;;;;;;;;;;;;27.22;42.47;97405.91;4224205;28;5753;-65
2022/05/19 17:00:45;;;;;;;;;;;;;;;27.23;42.50;97407.53;4228852;28;5948;-65
2022/05/19 17:02:49;;;;;;;;;;;;;;;27.22;42.50;97397.78;4223706;27;5900;-66
2022/05/19 17:04:51;;;;;;;;;;;;;;;27.22;42.47;97402.41;4227153;28;5749;-65
2022/05/19 17:07:08;;;;;;;;;;;;;;;27.23;42.46;97404.00;4230305;28;5745;-67
2022/05/19 17:09:13;;;;;;;;;;;;;;;27.23;42.09;97402.09;4228319;28;5762;-65
2022/05/19 17:11:16;;;;;;;;;;;;;;;27.25;42.12;97405.34;4224746;28;5764;-65
2022/05/19 17:13:20;;;;;;;;;;;;;;;27.23;42.04;97409.44;4225896;28;5749;-65
2022/05/19 17:15:24;;;;;;;;;;;;;;;27.24;42.24;97416.50;4222353;27;5756;-65
2022/05/19 17:17:27;;;;;;;;;;;;;;;27.24;41.89;97411.06;4223233;27;6525;-65
2022/05/19 17:19:31;;;;;;;;;;;;;;;27.22;41.79;97408.63;4228226;28;5788;-66
2022/05/19 17:21:34;;;;;;;;;;;;;;;27.23;41.74;97414.88;4220574;28;5761;-66